»·PEaware :: BTQ815 KPHX-KSVC

BTQ815 :: KPHX-KSVC

FLIGHT INFORMATION

Flight Status: Arrived
Operator: Unknown
More flights by this operator :: More flights under this callsign
Pilot: Armando C. (16967)
Aircraft: PILATUS PC-12 EAGLE
(PC12)
More flights by this aircraft type
Origin: KPHX Phoenix Sky Harbor Intl
United States
Destination: KSVC Grant Co
United States
More flights between these airports :: More routes between these airports
Route: +TFD4 TFD J50 SSO
File this flight plan on PilotEdge
Remarks: PBN / D2 DOF / 180515 REG / N012SB OPR / BTQ PER / B RMK / TCAS SIMBRIEF
Altitude:
(Current/Filed)
23,000ft
Speed:
(Current/Filed)
277kts
Departed: 15-May-18 09:24 AM
Arrived: 15-May-18 10:26 AM
Distance/Time
Traveled:
200nm/1:02
Distance/Time
To Go:
Arrived

Flight Plot

Page will automatically refresh every two minutes.

Flight plan parsing failed; only flown route is shown


Map Options




Map Legend


Flown Route
Filed Route
Departure Airport
Arrival Airport
Navaid (VOR, NDB)
Fix

Horizontal Profiles

Position Reports

Time Latitude Longitude Heading Altitude Ground
Speed
15-May-18 09:03 33.434119 -112.008314 288 1138ft 0kts
15-May-18 09:04 33.434119 -112.008314 288 1138ft 0kts
15-May-18 09:05 33.434119 -112.008314 288 1138ft 0kts
15-May-18 09:06 33.434119 -112.008314 288 1138ft 0kts
15-May-18 09:07 33.434119 -112.008314 288 1138ft 0kts
15-May-18 09:08 33.434119 -112.008314 288 1138ft 0kts
15-May-18 09:09 33.434119 -112.008314 288 1138ft 0kts
15-May-18 09:10 33.434119 -112.008314 288 1138ft 0kts
15-May-18 09:11 33.434119 -112.008314 288 1138ft 0kts
15-May-18 09:12 33.434119 -112.008314 288 1138ft 0kts
15-May-18 09:13 33.434119 -112.008314 288 1138ft 0kts
15-May-18 09:14 33.434119 -112.008314 288 1138ft 0kts
15-May-18 09:15 33.434286 -112.008116 89 1138ft 0kts
15-May-18 09:16 33.434286 -112.008116 89 1138ft 0kts
15-May-18 09:17 33.432841 -112.007443 177 1138ft 18kts
15-May-18 09:18 33.432855 -112.009528 268 1138ft 18kts
15-May-18 09:19 33.432861 -112.017751 264 1138ft 27kts
15-May-18 09:20 33.432891 -112.025612 274 1138ft 28kts
15-May-18 09:21 33.432062 -112.026921 182 1138ft 0kts
15-May-18 09:22 33.432062 -112.026921 182 1138ft 0kts
15-May-18 09:23 33.432062 -112.026921 182 1138ft 0kts
15-May-18 09:24 33.431101 -112.022044 86 1138ft 82kts
15-May-18 09:25 33.430914 -111.984062 88 2529ft 133kts
15-May-18 09:26 33.430354 -111.939877 85 4631ft 132kts
15-May-18 09:27 33.425424 -111.896245 109 6306ft 141kts
15-May-18 09:28 33.391558 -111.895494 209 7930ft 152kts
15-May-18 09:29 33.353159 -111.916303 178 9494ft 155kts
15-May-18 09:30 33.310053 -111.912695 175 10983ft 159kts
15-May-18 09:31 33.265585 -111.910864 177 12414ft 163kts
15-May-18 09:32 33.219943 -111.910083 177 13844ft 166kts
15-May-18 09:33 33.173283 -111.909658 177 15209ft 170kts
15-May-18 09:34 33.124681 -111.909358 178 16433ft 179kts
15-May-18 09:35 33.074404 -111.909108 178 17634ft 184kts
15-May-18 09:36 33.022971 -111.908887 178 18838ft 186kts
15-May-18 09:37 32.971080 -111.908632 178 20040ft 186kts
15-May-18 09:38 32.919646 -111.908380 178 21239ft 182kts
15-May-18 09:39 32.871627 -111.903547 133 22215ft 172kts
15-May-18 09:40 32.868680 -111.850334 93 22935ft 175kts
15-May-18 09:41 32.858666 -111.787209 101 23004ft 212kts
15-May-18 09:42 32.843251 -111.715929 102 23001ft 232kts
15-May-18 09:43 32.826359 -111.640341 102 22999ft 241kts
15-May-18 09:44 32.809061 -111.563016 103 22999ft 244kts
15-May-18 09:45 32.791525 -111.484890 102 22999ft 246kts
15-May-18 09:46 32.773860 -111.406466 102 22999ft 247kts
15-May-18 09:47 32.756192 -111.328313 103 22999ft 247kts
15-May-18 09:48 32.738362 -111.249620 103 22999ft 247kts
15-May-18 09:49 32.720483 -111.171166 103 22998ft 248kts
15-May-18 09:50 32.702488 -111.092020 103 22999ft 249kts
15-May-18 09:51 32.684349 -111.012892 102 23000ft 250kts
15-May-18 09:52 32.666315 -110.931635 114 23058ft 264kts
15-May-18 09:53 32.645755 -110.845267 111 23059ft 279kts
15-May-18 09:54 32.625001 -110.755412 111 23067ft 285kts
15-May-18 09:55 32.603887 -110.664261 111 23074ft 288kts
15-May-18 09:56 32.582481 -110.572288 111 23077ft 290kts
15-May-18 09:57 32.561034 -110.480474 111 23078ft 290kts
15-May-18 09:58 32.539370 -110.388057 111 23079ft 291kts
15-May-18 09:59 32.517817 -110.296387 112 23080ft 290kts
15-May-18 10:00 32.496298 -110.205256 112 23090ft 285kts
15-May-18 10:01 32.474370 -110.113087 111 22522ft 299kts
15-May-18 10:02 32.451569 -110.017127 111 21822ft 305kts
15-May-18 10:03 32.428563 -109.920686 111 21125ft 305kts
15-May-18 10:04 32.405489 -109.824366 111 20430ft 303kts
15-May-18 10:05 32.382451 -109.728545 111 19737ft 301kts
15-May-18 10:06 32.359571 -109.633741 110 19049ft 298kts
15-May-18 10:07 32.336872 -109.540013 110 18365ft 296kts
15-May-18 10:08 32.314307 -109.447176 110 17683ft 293kts
15-May-18 10:09 32.291791 -109.354859 110 17001ft 291kts
15-May-18 10:10 32.272207 -109.263432 85 16294ft 295kts
15-May-18 10:11 32.299832 -109.172427 68 15609ft 294kts
15-May-18 10:12 32.329830 -109.083204 67 14902ft 291kts
15-May-18 10:13 32.359572 -108.994587 67 14201ft 291kts
15-May-18 10:14 32.389602 -108.904915 67 13504ft 293kts
15-May-18 10:15 32.419279 -108.815963 67 12811ft 291kts
15-May-18 10:16 32.448858 -108.727012 67 12114ft 289kts
15-May-18 10:17 32.478032 -108.638842 67 11418ft 286kts
15-May-18 10:18 32.506803 -108.551861 67 10991ft 277kts
15-May-18 10:19 32.534879 -108.466716 67 10376ft 282kts
15-May-18 10:20 32.563575 -108.379461 67 9590ft 285kts
15-May-18 10:21 32.590922 -108.296157 67 9405ft 272kts
15-May-18 10:22 32.610775 -108.214714 88 8507ft 249kts
15-May-18 10:23 32.611311 -108.140783 89 7611ft 176kts
15-May-18 10:24 32.625674 -108.109249 324 6719ft 118kts
15-May-18 10:25 32.632243 -108.139989 269 5563ft 96kts
15-May-18 10:26 32.631876 -108.154228 183 5450ft 0kts
15-May-18 10:27 32.631642 -108.152732 89 5450ft 0kts
15-May-18 10:28 32.631579 -108.149994 59 5450ft 0kts
15-May-18 10:29 32.631598 -108.149967 29 5450ft 0kts
15-May-18 10:30 32.631598 -108.149967 29 5450ft 0kts
15-May-18 10:31 32.631598 -108.149967 29 5450ft 0kts

Navigation Log

Ident Type
Flight plan parsing failed, navigation log unavailable